sensor_id;sensor_type;location;lat;lon;timestamp;pressure;altitude;pressure_sealevel;temperature;humidity
62237;BME280;69163;48.778;2.308;2023-04-16T00:01:35;101575.16;;;17.33;35.25
62237;BME280;69163;48.778;2.308;2023-04-16T00:04:00;101577.40;;;17.34;35.17
62237;BME280;69163;48.778;2.308;2023-04-16T00:06:25;101576.92;;;17.35;35.05
62237;BME280;69163;48.778;2.308;2023-04-16T00:08:50;101580.97;;;17.11;35.16
62237;BME280;69163;48.778;2.308;2023-04-16T00:11:15;101581.32;;;17.16;34.96
62237;BME280;69163;48.778;2.308;2023-04-16T00:13:41;101584.76;;;17.11;34.93
62237;BME280;69163;48.778;2.308;2023-04-16T00:16:07;101581.63;;;17.30;34.96
62237;BME280;69163;48.778;2.308;2023-04-16T00:18:31;101587.33;;;17.39;34.78
62237;BME280;69163;48.778;2.308;2023-04-16T00:20:57;101585.70;;;17.37;34.75
62237;BME280;69163;48.778;2.308;2023-04-16T00:23:22;101585.18;;;17.18;34.59
62237;BME280;69163;48.778;2.308;2023-04-16T00:25:48;101585.35;;;17.45;34.55
62237;BME280;69163;48.778;2.308;2023-04-16T00:28:13;101585.86;;;17.73;34.45
62237;BME280;69163;48.778;2.308;2023-04-16T00:30:38;101587.13;;;17.42;34.51
62237;BME280;69163;48.778;2.308;2023-04-16T00:33:04;101585.45;;;17.62;34.42
62237;BME280;69163;48.778;2.308;2023-04-16T00:35:28;101583.50;;;17.37;34.45
62237;BME280;69163;48.778;2.308;2023-04-16T00:37:53;101586.06;;;17.13;34.36
62237;BME280;69163;48.778;2.308;2023-04-16T00:40:18;101587.31;;;17.42;34.33
62237;BME280;69163;48.778;2.308;2023-04-16T00:42:44;101590.45;;;17.40;34.27
62237;BME280;69163;48.778;2.308;2023-04-16T00:45:10;101591.23;;;17.18;34.18
62237;BME280;69163;48.778;2.308;2023-04-16T00:47:35;101593.95;;;17.25;34.20
62237;BME280;69163;48.778;2.308;2023-04-16T00:50:02;101586.03;;;17.11;34.19
62237;BME280;69163;48.778;2.308;2023-04-16T00:52:26;101585.43;;;17.06;34.29
62237;BME280;69163;48.778;2.308;2023-04-16T00:54:52;101581.89;;;17.32;34.20
62237;BME280;69163;48.778;2.308;2023-04-16T00:57:17;101579.48;;;17.04;34.17
62237;BME280;69163;48.778;2.308;2023-04-16T00:59:42;101581.89;;;17.35;34.10
62237;BME280;69163;48.778;2.308;2023-04-16T01:02:07;101580.96;;;17.35;34.04
62237;BME280;69163;48.778;2.308;2023-04-16T01:04:32;101576.27;;;17.28;34.16
62237;BME280;69163;48.778;2.308;2023-04-16T01:06:57;101578.30;;;17.34;33.94
62237;BME280;69163;48.778;2.308;2023-04-16T01:09:22;101581.44;;;17.43;33.93
62237;BME280;69163;48.778;2.308;2023-04-16T01:11:48;101584.46;;;17.32;33.89
62237;BME280;69163;48.778;2.308;2023-04-16T01:14:13;101578.97;;;17.04;34.04
62237;BME280;69163;48.778;2.308;2023-04-16T01:16:39;101580.13;;;17.23;33.93
62237;BME280;69163;48.778;2.308;2023-04-16T01:19:04;101580.46;;;17.29;33.87
62237;BME280;69163;48.778;2.308;2023-04-16T01:21:29;101581.90;;;17.03;33.90
62237;BME280;69163;48.778;2.308;2023-04-16T01:23:54;101580.53;;;17.26;33.81
62237;BME280;69163;48.778;2.308;2023-04-16T01:26:20;101577.91;;;17.39;33.89
62237;BME280;69163;48.778;2.308;2023-04-16T01:28:45;101576.63;;;17.53;33.82
62237;BME280;69163;48.778;2.308;2023-04-16T01:31:10;101575.22;;;17.27;33.79
62237;BME280;69163;48.778;2.308;2023-04-16T01:33:35;101570.61;;;17.53;33.71
62237;BME280;69163;48.778;2.308;2023-04-16T01:36:00;101570.06;;;17.05;33.81
62237;BME280;69163;48.778;2.308;2023-04-16T01:38:25;101571.47;;;17.33;33.74
62237;BME280;69163;48.778;2.308;2023-04-16T01:40:55;101573.29;;;17.01;33.67
62237;BME280;69163;48.778;2.308;2023-04-16T01:43:16;101570.97;;;16.99;33.70
62237;BME280;69163;48.778;2.308;2023-04-16T01:45:42;101571.04;;;17.20;33.67
62237;BME280;69163;48.778;2.308;2023-04-16T01:48:07;101575.20;;;17.23;33.82
62237;BME280;69163;48.778;2.308;2023-04-16T01:50:32;101583.36;;;17.33;33.75
62237;BME280;69163;48.778;2.308;2023-04-16T01:52:57;101587.58;;;17.32;33.61
62237;BME280;69163;48.778;2.308;2023-04-16T01:55:22;101592.00;;;17.29;33.70
62237;BME280;69163;48.778;2.308;2023-04-16T01:57:47;101591.37;;;17.31;33.70
62237;BME280;69163;48.778;2.308;2023-04-16T02:00:12;101587.93;;;16.97;33.62
62237;BME280;69163;48.778;2.308;2023-04-16T02:02:39;101584.42;;;16.92;33.73
62237;BME280;69163;48.778;2.308;2023-04-16T02:05:04;101584.73;;;17.15;33.67
62237;BME280;69163;48.778;2.308;2023-04-16T02:07:28;101590.17;;;16.85;33.69
62237;BME280;69163;48.778;2.308;2023-04-16T02:09:54;101587.55;;;16.52;33.70
62237;BME280;69163;48.778;2.308;2023-04-16T02:12:19;101588.60;;;17.17;33.70
62237;BME280;69163;48.778;2.308;2023-04-16T02:14:44;101589.56;;;17.39;33.57
62237;BME280;69163;48.778;2.308;2023-04-16T02:17:09;101594.75;;;17.45;33.58
62237;BME280;69163;48.778;2.308;2023-04-16T02:19:34;101593.52;;;17.12;33.68
62237;BME280;69163;48.778;2.308;2023-04-16T02:21:59;101592.92;;;17.14;33.60
62237;BME280;69163;48.778;2.308;2023-04-16T02:24:24;101598.53;;;17.29;33.47
62237;BME280;69163;48.778;2.308;2023-04-16T02:26:50;101593.91;;;16.95;33.40
62237;BME280;69163;48.778;2.308;2023-04-16T02:29:15;101600.89;;;17.30;33.31
62237;BME280;69163;48.778;2.308;2023-04-16T02:31:41;101599.19;;;17.16;33.44
62237;BME280;69163;48.778;2.308;2023-04-16T02:34:06;101597.42;;;16.67;33.41
62237;BME280;69163;48.778;2.308;2023-04-16T02:36:31;101602.35;;;17.25;33.26
62237;BME280;69163;48.778;2.308;2023-04-16T02:38:57;101600.57;;;17.11;33.38
62237;BME280;69163;48.778;2.308;2023-04-16T02:41:22;101596.45;;;17.28;33.38
62237;BME280;69163;48.778;2.308;2023-04-16T02:43:46;101597.43;;;17.14;33.33
62237;BME280;69163;48.778;2.308;2023-04-16T02:46:12;101597.27;;;17.07;33.35
62237;BME280;69163;48.778;2.308;2023-04-16T02:48:37;101598.92;;;17.00;33.16
62237;BME280;69163;48.778;2.308;2023-04-16T02:51:03;101596.08;;;16.96;33.21
62237;BME280;69163;48.778;2.308;2023-04-16T02:53:28;101592.58;;;17.05;33.05
62237;BME280;69163;48.778;2.308;2023-04-16T02:55:54;101594.62;;;16.99;33.08
62237;BME280;69163;48.778;2.308;2023-04-16T02:58:19;101599.17;;;17.12;33.19
62237;BME280;69163;48.778;2.308;2023-04-16T03:00:44;101599.88;;;17.27;33.06
62237;BME280;69163;48.778;2.308;2023-04-16T03:03:09;101595.26;;;17.18;33.11
62237;BME280;69163;48.778;2.308;2023-04-16T03:05:34;101595.22;;;17.17;32.92
62237;BME280;69163;48.778;2.308;2023-04-16T03:08:00;101595.29;;;17.07;32.95
62237;BME280;69163;48.778;2.308;2023-04-16T03:10:25;101597.88;;;17.13;32.99
62237;BME280;69163;48.778;2.308;2023-04-16T03:12:50;101597.12;;;17.19;32.85
62237;BME280;69163;48.778;2.308;2023-04-16T03:15:15;101597.38;;;17.14;32.96
62237;BME280;69163;48.778;2.308;2023-04-16T03:17:40;101597.58;;;16.96;32.84
62237;BME280;69163;48.778;2.308;2023-04-16T03:20:07;101596.49;;;17.16;32.88
62237;BME280;69163;48.778;2.308;2023-04-16T03:22:31;101598.62;;;17.16;32.88
62237;BME280;69163;48.778;2.308;2023-04-16T03:24:56;101600.36;;;17.11;32.84
62237;BME280;69163;48.778;2.308;2023-04-16T03:27:21;101602.98;;;17.24;32.67
62237;BME280;69163;48.778;2.308;2023-04-16T03:29:47;101603.17;;;17.37;32.67
62237;BME280;69163;48.778;2.308;2023-04-16T03:32:12;101599.48;;;17.18;32.75
62237;BME280;69163;48.778;2.308;2023-04-16T03:34:38;101602.05;;;17.17;32.62
62237;BME280;69163;48.778;2.308;2023-04-16T03:37:02;101602.31;;;17.21;32.68
62237;BME280;69163;48.778;2.308;2023-04-16T03:39:28;101602.68;;;17.37;32.72
62237;BME280;69163;48.778;2.308;2023-04-16T03:41:52;101599.36;;;17.19;32.67
62237;BME280;69163;48.778;2.308;2023-04-16T03:44:18;101596.33;;;17.10;32.72
62237;BME280;69163;48.778;2.308;2023-04-16T03:46:43;101596.36;;;16.90;32.62
62237;BME280;69163;48.778;2.308;2023-04-16T03:49:09;101598.09;;;17.28;32.56
62237;BME280;69163;48.778;2.308;2023-04-16T03:51:34;101593.14;;;16.94;32.52
62237;BME280;69163;48.778;2.308;2023-04-16T03:53:59;101596.93;;;17.11;32.61
62237;BME280;69163;48.778;2.308;2023-04-16T03:56:24;101596.29;;;17.67;32.50
62237;BME280;69163;48.778;2.308;2023-04-16T03:58:50;101598.08;;;17.41;32.55
62237;BME280;69163;48.778;2.308;2023-04-16T04:01:15;101597.68;;;17.75;32.43
62237;BME280;69163;48.778;2.308;2023-04-16T04:03:40;101601.30;;;17.43;32.43
62237;BME280;69163;48.778;2.308;2023-04-16T04:06:06;101604.85;;;17.39;32.32
62237;BME280;69163;48.778;2.308;2023-04-16T04:08:30;101606.75;;;17.53;32.36
62237;BME280;69163;48.778;2.308;2023-04-16T04:10:56;101600.97;;;17.18;32.43
62237;BME280;69163;48.778;2.308;2023-04-16T04:13:21;101607.08;;;17.63;32.42
62237;BME280;69163;48.778;2.308;2023-04-16T04:15:46;101608.77;;;17.16;32.38
62237;BME280;69163;48.778;2.308;2023-04-16T04:18:11;101610.49;;;17.11;32.32
62237;BME280;69163;48.778;2.308;2023-04-16T04:20:39;101613.53;;;17.12;32.41
62237;BME280;69163;48.778;2.308;2023-04-16T04:23:02;101614.80;;;17.21;32.28
62237;BME280;69163;48.778;2.308;2023-04-16T04:25:27;101619.18;;;17.23;32.20
62237;BME280;69163;48.778;2.308;2023-04-16T04:27:52;101622.24;;;17.29;32.20
62237;BME280;69163;48.778;2.308;2023-04-16T04:30:18;101625.77;;;17.26;32.23
62237;BME280;69163;48.778;2.308;2023-04-16T04:32:43;101621.66;;;17.19;32.23
62237;BME280;69163;48.778;2.308;2023-04-16T04:35:09;101619.67;;;17.70;32.24
62237;BME280;69163;48.778;2.308;2023-04-16T04:37:33;101622.76;;;17.79;32.15
62237;BME280;69163;48.778;2.308;2023-04-16T04:39:58;101622.42;;;17.79;32.11
62237;BME280;69163;48.778;2.308;2023-04-16T04:42:23;101621.18;;;17.18;32.16
62237;BME280;69163;48.778;2.308;2023-04-16T04:44:48;101621.60;;;17.09;32.12
62237;BME280;69163;48.778;2.308;2023-04-16T04:47:14;101622.35;;;17.01;32.22
62237;BME280;69163;48.778;2.308;2023-04-16T04:49:39;101618.95;;;17.14;32.15
62237;BME280;69163;48.778;2.308;2023-04-16T04:52:04;101622.83;;;17.05;32.14
62237;BME280;69163;48.778;2.308;2023-04-16T04:54:30;101628.14;;;17.19;32.11
62237;BME280;69163;48.778;2.308;2023-04-16T04:56:54;101625.82;;;17.24;32.04
62237;BME280;69163;48.778;2.308;2023-04-16T04:59:20;101629.85;;;17.15;32.09
62237;BME280;69163;48.778;2.308;2023-04-16T05:01:45;101626.62;;;17.11;32.12
62237;BME280;69163;48.778;2.308;2023-04-16T05:04:10;101628.97;;;17.17;31.97
62237;BME280;69163;48.778;2.308;2023-04-16T05:06:35;101631.92;;;17.11;32.03
62237;BME280;69163;48.778;2.308;2023-04-16T05:09:01;101632.27;;;16.76;31.95
62237;BME280;69163;48.778;2.308;2023-04-16T05:11:28;101631.79;;;17.14;31.97
62237;BME280;69163;48.778;2.308;2023-04-16T05:13:52;101638.76;;;17.24;31.89
62237;BME280;69163;48.778;2.308;2023-04-16T05:16:17;101643.82;;;17.18;31.96
62237;BME280;69163;48.778;2.308;2023-04-16T05:18:42;101647.84;;;17.01;31.84
62237;BME280;69163;48.778;2.308;2023-04-16T05:21:07;101649.67;;;17.15;31.86
62237;BME280;69163;48.778;2.308;2023-04-16T05:23:33;101648.97;;;17.26;31.82
62237;BME280;69163;48.778;2.308;2023-04-16T05:25:58;101653.01;;;17.17;31.79
62237;BME280;69163;48.778;2.308;2023-04-16T05:28:23;101656.79;;;17.31;31.74
62237;BME280;69163;48.778;2.308;2023-04-16T05:30:48;101661.84;;;17.35;31.73
62237;BME280;69163;48.778;2.308;2023-04-16T05:33:13;101662.79;;;17.20;31.80
62237;BME280;69163;48.778;2.308;2023-04-16T05:35:38;101664.81;;;17.24;31.79
62237;BME280;69163;48.778;2.308;2023-04-16T05:38:03;101669.06;;;17.30;31.73
62237;BME280;69163;48.778;2.308;2023-04-16T05:40:30;101671.00;;;17.22;31.76
62237;BME280;69163;48.778;2.308;2023-04-16T05:42:54;101675.11;;;17.77;31.72
62237;BME280;69163;48.778;2.308;2023-04-16T05:45:20;101679.12;;;17.28;31.72
62237;BME280;69163;48.778;2.308;2023-04-16T05:47:45;101678.03;;;17.27;31.72
62237;BME280;69163;48.778;2.308;2023-04-16T05:50:10;101680.92;;;17.44;31.74
62237;BME280;69163;48.778;2.308;2023-04-16T05:52:35;101679.19;;;17.12;31.81
62237;BME280;69163;48.778;2.308;2023-04-16T05:55:01;101685.37;;;17.41;31.75
62237;BME280;69163;48.778;2.308;2023-04-16T05:57:26;101687.22;;;17.48;31.72
62237;BME280;69163;48.778;2.308;2023-04-16T05:59:51;101687.81;;;17.44;31.74
62237;BME280;69163;48.778;2.308;2023-04-16T06:02:16;101688.00;;;17.22;31.64
62237;BME280;69163;48.778;2.308;2023-04-16T06:04:41;101692.39;;;17.25;31.67
62237;BME280;69163;48.778;2.308;2023-04-16T06:07:07;101692.23;;;17.23;31.68
62237;BME280;69163;48.778;2.308;2023-04-16T06:09:32;101694.21;;;17.25;31.66
62237;BME280;69163;48.778;2.308;2023-04-16T06:11:57;101693.66;;;17.22;31.65
62237;BME280;69163;48.778;2.308;2023-04-16T06:14:22;101694.84;;;17.26;31.64
62237;BME280;69163;48.778;2.308;2023-04-16T06:16:48;101695.70;;;17.24;31.59
62237;BME280;69163;48.778;2.308;2023-04-16T06:19:13;101694.52;;;17.50;31.62
62237;BME280;69163;48.778;2.308;2023-04-16T06:21:38;101692.80;;;17.55;31.57
62237;BME280;69163;48.778;2.308;2023-04-16T06:24:04;101688.78;;;17.50;31.58
62237;BME280;69163;48.778;2.308;2023-04-16T06:26:28;101690.11;;;17.27;31.58
62237;BME280;69163;48.778;2.308;2023-04-16T06:28:53;101691.87;;;16.98;31.63
62237;BME280;69163;48.778;2.308;2023-04-16T06:31:19;101692.07;;;17.22;31.58
62237;BME280;69163;48.778;2.308;2023-04-16T06:33:44;101693.68;;;17.20;31.63
62237;BME280;69163;48.778;2.308;2023-04-16T06:36:10;101692.79;;;17.20;31.62
62237;BME280;69163;48.778;2.308;2023-04-16T06:38:35;101690.17;;;17.15;31.65
62237;BME280;69163;48.778;2.308;2023-04-16T06:41:00;101693.93;;;17.19;31.62
62237;BME280;69163;48.778;2.308;2023-04-16T06:43:25;101694.90;;;17.68;31.59
62237;BME280;69163;48.778;2.308;2023-04-16T06:45:50;101693.67;;;17.20;31.59
62237;BME280;69163;48.778;2.308;2023-04-16T06:48:15;101693.20;;;17.16;31.63
62237;BME280;69163;48.778;2.308;2023-04-16T06:50:40;101692.57;;;17.19;31.57
62237;BME280;69163;48.778;2.308;2023-04-16T06:53:06;101693.70;;;17.18;31.55
62237;BME280;69163;48.778;2.308;2023-04-16T06:55:31;101697.66;;;17.22;31.54
62237;BME280;69163;48.778;2.308;2023-04-16T06:57:57;101700.29;;;17.70;31.52
62237;BME280;69163;48.778;2.308;2023-04-16T07:00:22;101701.57;;;17.27;31.50
62237;BME280;69163;48.778;2.308;2023-04-16T07:02:47;101702.06;;;17.28;31.48
62237;BME280;69163;48.778;2.308;2023-04-16T07:05:12;101705.11;;;17.27;31.48
62237;BME280;69163;48.778;2.308;2023-04-16T07:07:38;101704.12;;;17.70;31.51
62237;BME280;69163;48.778;2.308;2023-04-16T07:10:03;101705.34;;;17.49;31.49
62237;BME280;69163;48.778;2.308;2023-04-16T07:12:28;101707.77;;;17.26;31.48
62237;BME280;69163;48.778;2.308;2023-04-16T07:14:53;101709.06;;;17.29;31.44
62237;BME280;69163;48.778;2.308;2023-04-16T07:17:18;101710.07;;;17.26;31.44
62237;BME280;69163;48.778;2.308;2023-04-16T07:19:43;101707.61;;;17.21;31.50
62237;BME280;69163;48.778;2.308;2023-04-16T07:22:09;101707.63;;;17.12;31.58
62237;BME280;69163;48.778;2.308;2023-04-16T07:24:34;101710.67;;;17.13;31.57
62237;BME280;69163;48.778;2.308;2023-04-16T07:27:00;101711.77;;;17.14;31.57
62237;BME280;69163;48.778;2.308;2023-04-16T07:29:25;101712.87;;;17.38;31.55
62237;BME280;69163;48.778;2.308;2023-04-16T07:31:50;101712.92;;;17.18;31.51
62237;BME280;69163;48.778;2.308;2023-04-16T07:34:16;101718.68;;;17.29;31.42
62237;BME280;69163;48.778;2.308;2023-04-16T07:36:41;101717.65;;;17.57;31.38
62237;BME280;69163;48.778;2.308;2023-04-16T07:39:06;101716.45;;;17.51;31.37
62237;BME280;69163;48.778;2.308;2023-04-16T07:41:31;101717.82;;;17.08;31.37
62237;BME280;69163;48.778;2.308;2023-04-16T07:43:56;101713.59;;;17.29;31.38
62237;BME280;69163;48.778;2.308;2023-04-16T07:46:21;101717.04;;;17.33;31.36
62237;BME280;69163;48.778;2.308;2023-04-16T07:48:47;101714.82;;;17.15;31.30
62237;BME280;69163;48.778;2.308;2023-04-16T07:51:12;101717.53;;;17.44;31.23
62237;BME280;69163;48.778;2.308;2023-04-16T07:53:37;101716.78;;;17.46;31.21
62237;BME280;69163;48.778;2.308;2023-04-16T07:56:02;101719.84;;;17.17;31.24
62237;BME280;69163;48.778;2.308;2023-04-16T07:58:27;101719.04;;;17.44;31.19
62237;BME280;69163;48.778;2.308;2023-04-16T08:00:53;101723.79;;;17.35;31.26
62237;BME280;69163;48.778;2.308;2023-04-16T08:03:18;101723.94;;;17.33;31.30
62237;BME280;69163;48.778;2.308;2023-04-16T08:05:44;101728.42;;;17.31;31.31
62237;BME280;69163;48.778;2.308;2023-04-16T08:08:09;101732.05;;;17.29;31.33
62237;BME280;69163;48.778;2.308;2023-04-16T08:10:34;101733.45;;;17.38;31.25
62237;BME280;69163;48.778;2.308;2023-04-16T08:13:00;101733.30;;;17.68;31.18
62237;BME280;69163;48.778;2.308;2023-04-16T08:15:24;101738.67;;;17.70;31.15
62237;BME280;69163;48.778;2.308;2023-04-16T08:17:49;101738.24;;;17.44;31.13
62237;BME280;69163;48.778;2.308;2023-04-16T08:20:15;101734.21;;;17.48;31.14
62237;BME280;69163;48.778;2.308;2023-04-16T08:22:40;101733.43;;;17.53;31.05
62237;BME280;69163;48.778;2.308;2023-04-16T08:25:06;101731.04;;;17.31;31.02
62237;BME280;69163;48.778;2.308;2023-04-16T08:27:31;101734.21;;;17.54;31.02
62237;BME280;69163;48.778;2.308;2023-04-16T08:29:56;101734.13;;;17.54;31.02
62237;BME280;69163;48.778;2.308;2023-04-16T08:32:22;101737.58;;;17.58;31.01
62237;BME280;69163;48.778;2.308;2023-04-16T08:34:47;101740.21;;;17.56;31.01
62237;BME280;69163;48.778;2.308;2023-04-16T08:37:12;101740.25;;;17.56;31.00
62237;BME280;69163;48.778;2.308;2023-04-16T08:39:37;101743.16;;;18.09;30.93
62237;BME280;69163;48.778;2.308;2023-04-16T08:42:04;101741.89;;;17.80;30.97
62237;BME280;69163;48.778;2.308;2023-04-16T08:44:31;101748.15;;;17.61;30.94
62237;BME280;69163;48.778;2.308;2023-04-16T08:46:53;101746.85;;;17.50;31.03
62237;BME280;69163;48.778;2.308;2023-04-16T08:49:18;101745.05;;;17.56;30.98
62237;BME280;69163;48.778;2.308;2023-04-16T08:51:48;101744.83;;;17.55;30.98
62237;BME280;69163;48.778;2.308;2023-04-16T08:54:11;101746.24;;;17.58;30.97
62237;BME280;69163;48.778;2.308;2023-04-16T08:56:35;101744.91;;;17.78;31.00
62237;BME280;69163;48.778;2.308;2023-04-16T08:58:59;101748.76;;;17.51;31.04
62237;BME280;69163;48.778;2.308;2023-04-16T09:01:25;101748.68;;;17.55;30.99
62237;BME280;69163;48.778;2.308;2023-04-16T09:03:50;101751.14;;;17.80;30.97
62237;BME280;69163;48.778;2.308;2023-04-16T09:06:15;101755.00;;;17.54;30.99
62237;BME280;69163;48.778;2.308;2023-04-16T09:08:41;101754.19;;;17.53;31.00
62237;BME280;69163;48.778;2.308;2023-04-16T09:11:06;101749.34;;;17.26;31.05
62237;BME280;69163;48.778;2.308;2023-04-16T09:13:31;101754.13;;;17.52;31.03
62237;BME280;69163;48.778;2.308;2023-04-16T09:15:56;101752.48;;;17.53;31.02
62237;BME280;69163;48.778;2.308;2023-04-16T09:18:22;101750.55;;;17.47;31.07
62237;BME280;69163;48.778;2.308;2023-04-16T09:20:48;101747.80;;;17.47;31.07
62237;BME280;69163;48.778;2.308;2023-04-16T09:23:12;101753.53;;;17.45;31.08
62237;BME280;69163;48.778;2.308;2023-04-16T09:25:38;101747.87;;;17.40;31.14
62237;BME280;69163;48.778;2.308;2023-04-16T09:28:03;101747.65;;;17.16;31.13
62237;BME280;69163;48.778;2.308;2023-04-16T09:30:28;101753.15;;;17.90;31.14
62237;BME280;69163;48.778;2.308;2023-04-16T09:35:19;101756.33;;;17.63;31.15
62237;BME280;69163;48.778;2.308;2023-04-16T09:37:46;101750.91;;;17.43;31.12
62237;BME280;69163;48.778;2.308;2023-04-16T09:40:09;101751.28;;;17.41;31.11
62237;BME280;69163;48.778;2.308;2023-04-16T09:42:35;101759.01;;;17.39;31.14
62237;BME280;69163;48.778;2.308;2023-04-16T09:44:59;101757.68;;;17.36;31.16
62237;BME280;69163;48.778;2.308;2023-04-16T09:47:26;101759.16;;;17.36;31.15
62237;BME280;69163;48.778;2.308;2023-04-16T09:49:50;101764.96;;;17.04;31.84
62237;BME280;69163;48.778;2.308;2023-04-16T09:52:18;101759.76;;;17.40;32.29
62237;BME280;69163;48.778;2.308;2023-04-16T09:54:45;101769.47;;;17.13;32.54
62237;BME280;69163;48.778;2.308;2023-04-16T09:57:06;101761.97;;;17.91;32.77
62237;BME280;69163;48.778;2.308;2023-04-16T09:59:31;101763.94;;;17.43;32.94
62237;BME280;69163;48.778;2.308;2023-04-16T10:01:59;101765.14;;;17.89;33.11
62237;BME280;69163;48.778;2.308;2023-04-16T10:04:22;101768.70;;;17.58;33.21
62237;BME280;69163;48.778;2.308;2023-04-16T10:07:02;101764.96;;;17.23;33.15
62237;BME280;69163;48.778;2.308;2023-04-16T10:09:12;101767.92;;;17.40;33.30
62237;BME280;69163;48.778;2.308;2023-04-16T10:11:38;101771.23;;;17.56;33.29
62237;BME280;69163;48.778;2.308;2023-04-16T10:14:03;101770.58;;;17.55;33.30
62237;BME280;69163;48.778;2.308;2023-04-16T10:16:29;101770.78;;;17.67;33.17
62237;BME280;69163;48.778;2.308;2023-04-16T10:18:55;101762.35;;;17.89;33.19
62237;BME280;69163;48.778;2.308;2023-04-16T10:21:20;101764.71;;;17.72;33.15
62237;BME280;69163;48.778;2.308;2023-04-16T10:23:44;101766.05;;;17.79;33.05
62237;BME280;69163;48.778;2.308;2023-04-16T10:26:10;101760.94;;;18.21;33.12
62237;BME280;69163;48.778;2.308;2023-04-16T10:28:36;101757.05;;;17.91;33.18
62237;BME280;69163;48.778;2.308;2023-04-16T10:31:02;101761.11;;;17.72;33.55
62237;BME280;69163;48.778;2.308;2023-04-16T10:33:27;101763.29;;;17.53;33.90
62237;BME280;69163;48.778;2.308;2023-04-16T10:38:22;101761.74;;;17.54;34.13
62237;BME280;69163;48.778;2.308;2023-04-16T10:40:44;101767.12;;;17.80;34.08
62237;BME280;69163;48.778;2.308;2023-04-16T10:43:06;101761.08;;;17.81;34.11
62237;BME280;69163;48.778;2.308;2023-04-16T10:45:33;101762.87;;;18.10;33.92
62237;BME280;69163;48.778;2.308;2023-04-16T10:47:57;101762.18;;;17.84;33.89
62237;BME280;69163;48.778;2.308;2023-04-16T10:50:22;101767.18;;;18.05;33.87
62237;BME280;69163;48.778;2.308;2023-04-16T10:52:47;101764.30;;;17.77;33.87
62237;BME280;69163;48.778;2.308;2023-04-16T10:55:16;101764.42;;;17.77;33.82
62237;BME280;69163;48.778;2.308;2023-04-16T10:57:38;101765.94;;;17.79;33.74
62237;BME280;69163;48.778;2.308;2023-04-16T11:02:28;101756.18;;;17.73;33.70
62237;BME280;69163;48.778;2.308;2023-04-16T11:04:55;101759.49;;;17.81;33.58
62237;BME280;69163;48.778;2.308;2023-04-16T11:07:20;101757.44;;;17.86;33.52
62237;BME280;69163;48.778;2.308;2023-04-16T11:09:50;101758.37;;;17.83;33.52
62237;BME280;69163;48.778;2.308;2023-04-16T11:12:12;101756.81;;;17.82;33.45
62237;BME280;69163;48.778;2.308;2023-04-16T11:14:34;101756.01;;;18.00;33.51
62237;BME280;69163;48.778;2.308;2023-04-16T11:17:02;101753.75;;;18.30;33.46
62237;BME280;69163;48.778;2.308;2023-04-16T11:19:25;101746.14;;;18.00;33.49
62237;BME280;69163;48.778;2.308;2023-04-16T11:21:50;101745.88;;;17.82;33.46
62237;BME280;69163;48.778;2.308;2023-04-16T11:24:15;101747.99;;;17.83;33.39
62237;BME280;69163;48.778;2.308;2023-04-16T11:26:41;101744.42;;;17.80;33.36
62237;BME280;69163;48.778;2.308;2023-04-16T11:29:12;101743.13;;;17.78;33.37
62237;BME280;69163;48.778;2.308;2023-04-16T11:31:32;101741.64;;;17.82;33.29
62237;BME280;69163;48.778;2.308;2023-04-16T11:33:57;101737.97;;;17.82;33.24
62237;BME280;69163;48.778;2.308;2023-04-16T11:36:23;101735.84;;;17.80;33.20
62237;BME280;69163;48.778;2.308;2023-04-16T11:38:48;101737.34;;;17.84;33.12
62237;BME280;69163;48.778;2.308;2023-04-16T11:41:18;101738.73;;;17.83;33.11
62237;BME280;69163;48.778;2.308;2023-04-16T11:43:39;101734.58;;;18.27;33.13
62237;BME280;69163;48.778;2.308;2023-04-16T11:46:05;101734.32;;;17.84;33.05
62237;BME280;69163;48.778;2.308;2023-04-16T11:50:56;101724.20;;;18.29;33.06
62237;BME280;69163;48.778;2.308;2023-04-16T11:53:20;101733.11;;;18.07;33.00
62237;BME280;69163;48.778;2.308;2023-04-16T11:55:45;101732.66;;;17.57;33.00
62237;BME280;69163;48.778;2.308;2023-04-16T11:58:11;101727.13;;;17.84;32.94
62237;BME280;69163;48.778;2.308;2023-04-16T12:00:36;101725.32;;;17.84;32.85
62237;BME280;69163;48.778;2.308;2023-04-16T12:03:01;101730.40;;;17.60;32.80
62237;BME280;69163;48.778;2.308;2023-04-16T12:05:30;101721.02;;;17.61;32.76
62237;BME280;69163;48.778;2.308;2023-04-16T12:07:53;101721.63;;;17.80;32.74
62237;BME280;69163;48.778;2.308;2023-04-16T12:10:18;101722.83;;;17.82;32.65
62237;BME280;69163;48.778;2.308;2023-04-16T12:12:43;101713.84;;;17.82;32.61
62237;BME280;69163;48.778;2.308;2023-04-16T12:15:09;101715.10;;;17.80;32.60
62237;BME280;69163;48.778;2.308;2023-04-16T12:17:34;101716.11;;;17.84;32.51
62237;BME280;69163;48.778;2.308;2023-04-16T12:20:00;101715.04;;;17.81;32.51
62237;BME280;69163;48.778;2.308;2023-04-16T12:22:28;101715.84;;;17.87;32.42
62237;BME280;69163;48.778;2.308;2023-04-16T12:24:49;101707.70;;;17.82;32.42
62237;BME280;69163;48.778;2.308;2023-04-16T12:27:14;101706.36;;;17.62;32.33
62237;BME280;69163;48.778;2.308;2023-04-16T12:29:39;101703.12;;;17.61;32.30
62237;BME280;69163;48.778;2.308;2023-04-16T12:34:30;101708.71;;;17.86;32.23
62237;BME280;69163;48.778;2.308;2023-04-16T12:37:02;101705.81;;;17.86;32.18
62237;BME280;69163;48.778;2.308;2023-04-16T12:39:21;101714.48;;;17.86;32.13
62237;BME280;69163;48.778;2.308;2023-04-16T12:41:46;101713.72;;;17.90;32.10
62237;BME280;69163;48.778;2.308;2023-04-16T12:44:15;101705.51;;;18.12;32.07
62237;BME280;69163;48.778;2.308;2023-04-16T12:46:37;101702.08;;;18.39;31.98
62237;BME280;69163;48.778;2.308;2023-04-16T12:49:01;101709.17;;;18.13;31.96
62237;BME280;69163;48.778;2.308;2023-04-16T12:51:26;101700.06;;;17.88;31.96